sensor_id;sensor_type;location;lat;lon;timestamp;P1;durP1;ratioP1;P2;durP2;ratioP2
27794;SDS011;15176;50.844;4.412;2023-02-15T00:02:18;33.60;;;19.25;;
27794;SDS011;15176;50.844;4.412;2023-02-15T00:04:45;44.30;;;23.92;;
27794;SDS011;15176;50.844;4.412;2023-02-15T00:07:14;34.65;;;20.35;;
27794;SDS011;15176;50.844;4.412;2023-02-15T00:09:40;47.20;;;22.67;;
27794;SDS011;15176;50.844;4.412;2023-02-15T00:12:06;32.20;;;18.98;;
27794;SDS011;15176;50.844;4.412;2023-02-15T00:14:32;43.53;;;23.40;;
27794;SDS011;15176;50.844;4.412;2023-02-15T00:16:57;41.97;;;23.55;;
27794;SDS011;15176;50.844;4.412;2023-02-15T00:19:24;35.03;;;20.05;;
27794;SDS011;15176;50.844;4.412;2023-02-15T00:21:50;48.22;;;24.55;;
27794;SDS011;15176;50.844;4.412;2023-02-15T00:24:17;32.00;;;18.02;;
27794;SDS011;15176;50.844;4.412;2023-02-15T00:26:44;41.78;;;23.40;;
27794;SDS011;15176;50.844;4.412;2023-02-15T00:29:12;38.30;;;21.20;;
27794;SDS011;15176;50.844;4.412;2023-02-15T00:31:39;42.30;;;23.55;;
27794;SDS011;15176;50.844;4.412;2023-02-15T00:34:18;41.55;;;23.15;;
27794;SDS011;15176;50.844;4.412;2023-02-15T00:36:46;42.22;;;23.05;;
27794;SDS011;15176;50.844;4.412;2023-02-15T00:39:13;34.63;;;20.60;;
27794;SDS011;15176;50.844;4.412;2023-02-15T00:41:39;40.50;;;21.95;;
27794;SDS011;15176;50.844;4.412;2023-02-15T00:44:05;35.63;;;21.23;;
27794;SDS011;15176;50.844;4.412;2023-02-15T00:46:31;43.65;;;24.10;;
27794;SDS011;15176;50.844;4.412;2023-02-15T00:48:57;33.78;;;20.10;;
27794;SDS011;15176;50.844;4.412;2023-02-15T00:51:23;41.35;;;23.70;;
27794;SDS011;15176;50.844;4.412;2023-02-15T00:53:49;29.98;;;16.05;;
27794;SDS011;15176;50.844;4.412;2023-02-15T00:56:15;41.60;;;22.13;;
27794;SDS011;15176;50.844;4.412;2023-02-15T00:58:40;38.05;;;20.50;;
27794;SDS011;15176;50.844;4.412;2023-02-15T01:01:08;29.38;;;17.67;;
27794;SDS011;15176;50.844;4.412;2023-02-15T01:03:35;33.38;;;17.90;;
27794;SDS011;15176;50.844;4.412;2023-02-15T01:06:02;28.15;;;16.52;;
27794;SDS011;15176;50.844;4.412;2023-02-15T01:08:28;40.95;;;22.40;;
27794;SDS011;15176;50.844;4.412;2023-02-15T01:10:55;36.30;;;20.42;;
27794;SDS011;15176;50.844;4.412;2023-02-15T01:13:20;39.67;;;20.58;;
27794;SDS011;15176;50.844;4.412;2023-02-15T01:15:52;41.03;;;22.92;;
27794;SDS011;15176;50.844;4.412;2023-02-15T01:18:19;43.40;;;23.65;;
27794;SDS011;15176;50.844;4.412;2023-02-15T01:20:45;33.95;;;18.92;;
27794;SDS011;15176;50.844;4.412;2023-02-15T01:23:12;31.70;;;17.85;;
27794;SDS011;15176;50.844;4.412;2023-02-15T01:25:38;44.25;;;23.55;;
27794;SDS011;15176;50.844;4.412;2023-02-15T01:28:05;39.50;;;20.67;;
27794;SDS011;15176;50.844;4.412;2023-02-15T01:30:31;46.72;;;24.73;;
27794;SDS011;15176;50.844;4.412;2023-02-15T01:32:57;37.03;;;21.30;;
27794;SDS011;15176;50.844;4.412;2023-02-15T01:35:23;49.65;;;25.45;;
27794;SDS011;15176;50.844;4.412;2023-02-15T01:37:49;43.28;;;23.35;;
27794;SDS011;15176;50.844;4.412;2023-02-15T01:40:15;43.67;;;24.25;;
27794;SDS011;15176;50.844;4.412;2023-02-15T01:42:42;39.95;;;22.25;;
27794;SDS011;15176;50.844;4.412;2023-02-15T01:45:18;45.13;;;24.73;;
27794;SDS011;15176;50.844;4.412;2023-02-15T01:48:17;40.47;;;23.05;;
27794;SDS011;15176;50.844;4.412;2023-02-15T01:50:46;39.55;;;21.85;;
27794;SDS011;15176;50.844;4.412;2023-02-15T01:53:57;41.30;;;23.33;;
27794;SDS011;15176;50.844;4.412;2023-02-15T01:56:25;45.65;;;23.40;;
27794;SDS011;15176;50.844;4.412;2023-02-15T01:58:56;38.42;;;21.48;;
27794;SDS011;15176;50.844;4.412;2023-02-15T02:01:25;44.90;;;24.95;;
27794;SDS011;15176;50.844;4.412;2023-02-15T02:06:54;47.50;;;22.85;;
27794;SDS011;15176;50.844;4.412;2023-02-15T02:09:22;38.30;;;20.80;;
27794;SDS011;15176;50.844;4.412;2023-02-15T02:11:48;45.53;;;24.65;;
27794;SDS011;15176;50.844;4.412;2023-02-15T02:14:15;33.10;;;18.35;;
27794;SDS011;15176;50.844;4.412;2023-02-15T02:17:04;47.42;;;24.10;;
27794;SDS011;15176;50.844;4.412;2023-02-15T02:28:22;43.63;;;25.00;;
27794;SDS011;15176;50.844;4.412;2023-02-15T02:31:14;41.45;;;23.58;;
27794;SDS011;15176;50.844;4.412;2023-02-15T02:33:57;35.85;;;20.23;;
27794;SDS011;15176;50.844;4.412;2023-02-15T02:44:47;48.00;;;25.58;;
27794;SDS011;15176;50.844;4.412;2023-02-15T02:47:20;35.10;;;19.75;;
27794;SDS011;15176;50.844;4.412;2023-02-15T02:50:00;44.72;;;23.48;;
27794;SDS011;15176;50.844;4.412;2023-02-15T02:52:47;45.63;;;26.15;;
27794;SDS011;15176;50.844;4.412;2023-02-15T02:55:19;35.83;;;21.95;;
27794;SDS011;15176;50.844;4.412;2023-02-15T03:05:53;37.53;;;22.20;;
27794;SDS011;15176;50.844;4.412;2023-02-15T03:08:22;41.72;;;24.08;;
27794;SDS011;15176;50.844;4.412;2023-02-15T03:10:53;42.80;;;23.83;;
27794;SDS011;15176;50.844;4.412;2023-02-15T03:13:22;49.38;;;26.23;;
27794;SDS011;15176;50.844;4.412;2023-02-15T03:15:48;41.00;;;23.50;;
27794;SDS011;15176;50.844;4.412;2023-02-15T03:18:36;35.42;;;21.90;;
27794;SDS011;15176;50.844;4.412;2023-02-15T03:21:06;35.08;;;19.52;;
27794;SDS011;15176;50.844;4.412;2023-02-15T03:23:46;43.97;;;25.23;;
27794;SDS011;15176;50.844;4.412;2023-02-15T03:26:22;44.97;;;24.58;;
27794;SDS011;15176;50.844;4.412;2023-02-15T03:28:50;28.85;;;16.02;;
27794;SDS011;15176;50.844;4.412;2023-02-15T03:31:20;46.45;;;25.70;;
27794;SDS011;15176;50.844;4.412;2023-02-15T03:33:53;33.08;;;19.67;;
27794;SDS011;15176;50.844;4.412;2023-02-15T03:42:00;44.97;;;24.52;;
27794;SDS011;15176;50.844;4.412;2023-02-15T03:45:00;37.03;;;21.70;;
27794;SDS011;15176;50.844;4.412;2023-02-15T03:47:37;44.70;;;25.08;;
27794;SDS011;15176;50.844;4.412;2023-02-15T03:50:12;41.70;;;24.88;;
27794;SDS011;15176;50.844;4.412;2023-02-15T03:53:02;41.95;;;23.85;;
27794;SDS011;15176;50.844;4.412;2023-02-15T03:55:31;43.08;;;24.90;;
27794;SDS011;15176;50.844;4.412;2023-02-15T03:57:58;41.08;;;22.63;;
27794;SDS011;15176;50.844;4.412;2023-02-15T04:00:44;44.40;;;26.23;;
27794;SDS011;15176;50.844;4.412;2023-02-15T04:04:03;44.28;;;24.90;;
27794;SDS011;15176;50.844;4.412;2023-02-15T04:06:37;40.58;;;24.17;;
27794;SDS011;15176;50.844;4.412;2023-02-15T04:09:02;42.25;;;25.33;;
27794;SDS011;15176;50.844;4.412;2023-02-15T04:11:47;43.58;;;24.77;;
27794;SDS011;15176;50.844;4.412;2023-02-15T04:14:12;42.00;;;23.35;;
27794;SDS011;15176;50.844;4.412;2023-02-15T04:16:56;43.00;;;23.92;;
27794;SDS011;15176;50.844;4.412;2023-02-15T04:19:22;42.97;;;24.17;;
27794;SDS011;15176;50.844;4.412;2023-02-15T04:22:06;32.58;;;18.50;;
27794;SDS011;15176;50.844;4.412;2023-02-15T04:24:50;29.85;;;16.80;;
27794;SDS011;15176;50.844;4.412;2023-02-15T04:27:35;39.90;;;22.00;;
27794;SDS011;15176;50.844;4.412;2023-02-15T04:30:01;37.75;;;20.55;;
27794;SDS011;15176;50.844;4.412;2023-02-15T04:32:27;42.33;;;22.73;;
27794;SDS011;15176;50.844;4.412;2023-02-15T04:34:52;49.58;;;26.77;;
27794;SDS011;15176;50.844;4.412;2023-02-15T04:37:18;47.38;;;25.67;;
27794;SDS011;15176;50.844;4.412;2023-02-15T04:39:44;39.97;;;23.23;;
27794;SDS011;15176;50.844;4.412;2023-02-15T04:42:10;44.22;;;25.40;;
27794;SDS011;15176;50.844;4.412;2023-02-15T04:44:35;46.78;;;25.23;;
27794;SDS011;15176;50.844;4.412;2023-02-15T04:47:01;38.53;;;21.05;;
27794;SDS011;15176;50.844;4.412;2023-02-15T04:49:27;42.13;;;24.90;;
27794;SDS011;15176;50.844;4.412;2023-02-15T04:51:52;45.35;;;26.48;;
27794;SDS011;15176;50.844;4.412;2023-02-15T04:54:18;44.08;;;26.38;;
27794;SDS011;15176;50.844;4.412;2023-02-15T04:56:44;43.78;;;25.05;;
27794;SDS011;15176;50.844;4.412;2023-02-15T04:59:10;48.00;;;27.50;;
27794;SDS011;15176;50.844;4.412;2023-02-15T05:01:36;39.97;;;21.40;;
27794;SDS011;15176;50.844;4.412;2023-02-15T05:04:02;41.25;;;23.85;;
27794;SDS011;15176;50.844;4.412;2023-02-15T05:06:29;48.17;;;26.50;;
27794;SDS011;15176;50.844;4.412;2023-02-15T05:08:55;37.45;;;21.10;;
27794;SDS011;15176;50.844;4.412;2023-02-15T05:11:23;34.13;;;19.60;;
27794;SDS011;15176;50.844;4.412;2023-02-15T05:13:50;42.42;;;24.27;;
27794;SDS011;15176;50.844;4.412;2023-02-15T05:16:16;27.00;;;15.20;;
27794;SDS011;15176;50.844;4.412;2023-02-15T05:18:42;47.42;;;26.83;;
27794;SDS011;15176;50.844;4.412;2023-02-15T05:21:09;40.67;;;24.50;;
27794;SDS011;15176;50.844;4.412;2023-02-15T05:23:35;39.10;;;22.52;;
27794;SDS011;15176;50.844;4.412;2023-02-15T05:26:01;40.55;;;23.15;;
27794;SDS011;15176;50.844;4.412;2023-02-15T05:28:45;34.67;;;18.08;;
27794;SDS011;15176;50.844;4.412;2023-02-15T05:31:12;33.60;;;18.15;;
27794;SDS011;15176;50.844;4.412;2023-02-15T05:33:43;43.10;;;25.67;;
27794;SDS011;15176;50.844;4.412;2023-02-15T05:36:09;43.33;;;23.88;;
27794;SDS011;15176;50.844;4.412;2023-02-15T05:38:36;43.60;;;24.75;;
27794;SDS011;15176;50.844;4.412;2023-02-15T05:41:02;42.33;;;20.48;;
27794;SDS011;15176;50.844;4.412;2023-02-15T05:43:31;38.25;;;22.10;;
27794;SDS011;15176;50.844;4.412;2023-02-15T05:45:57;47.05;;;25.45;;
27794;SDS011;15176;50.844;4.412;2023-02-15T05:48:24;45.30;;;26.65;;
27794;SDS011;15176;50.844;4.412;2023-02-15T05:51:01;41.85;;;26.30;;
27794;SDS011;15176;50.844;4.412;2023-02-15T05:53:31;43.72;;;25.45;;
27794;SDS011;15176;50.844;4.412;2023-02-15T05:55:58;56.20;;;31.95;;
27794;SDS011;15176;50.844;4.412;2023-02-15T05:58:25;45.53;;;25.45;;
27794;SDS011;15176;50.844;4.412;2023-02-15T06:00:52;39.63;;;22.80;;
27794;SDS011;15176;50.844;4.412;2023-02-15T06:03:18;47.20;;;26.23;;
27794;SDS011;15176;50.844;4.412;2023-02-15T06:05:43;44.05;;;22.88;;
27794;SDS011;15176;50.844;4.412;2023-02-15T06:08:09;48.67;;;28.08;;
27794;SDS011;15176;50.844;4.412;2023-02-15T06:10:35;50.05;;;27.83;;
27794;SDS011;15176;50.844;4.412;2023-02-15T06:13:00;46.10;;;27.85;;
27794;SDS011;15176;50.844;4.412;2023-02-15T06:15:26;46.42;;;24.83;;
27794;SDS011;15176;50.844;4.412;2023-02-15T06:17:52;41.67;;;25.13;;
27794;SDS011;15176;50.844;4.412;2023-02-15T06:20:17;43.42;;;24.00;;
27794;SDS011;15176;50.844;4.412;2023-02-15T06:22:43;46.20;;;27.02;;
27794;SDS011;15176;50.844;4.412;2023-02-15T06:25:08;44.88;;;24.50;;
27794;SDS011;15176;50.844;4.412;2023-02-15T06:27:37;47.72;;;26.67;;
27794;SDS011;15176;50.844;4.412;2023-02-15T06:30:07;41.00;;;23.23;;
27794;SDS011;15176;50.844;4.412;2023-02-15T06:32:33;49.38;;;26.98;;
27794;SDS011;15176;50.844;4.412;2023-02-15T06:34:59;48.60;;;27.02;;
27794;SDS011;15176;50.844;4.412;2023-02-15T06:37:25;34.60;;;19.92;;
27794;SDS011;15176;50.844;4.412;2023-02-15T06:39:51;47.75;;;27.70;;
27794;SDS011;15176;50.844;4.412;2023-02-15T06:42:17;33.60;;;19.35;;
27794;SDS011;15176;50.844;4.412;2023-02-15T06:44:43;47.72;;;25.55;;
27794;SDS011;15176;50.844;4.412;2023-02-15T06:47:09;47.78;;;26.73;;
27794;SDS011;15176;50.844;4.412;2023-02-15T06:49:35;43.63;;;25.15;;
27794;SDS011;15176;50.844;4.412;2023-02-15T06:52:02;45.70;;;26.77;;
27794;SDS011;15176;50.844;4.412;2023-02-15T06:54:28;49.05;;;26.55;;
27794;SDS011;15176;50.844;4.412;2023-02-15T06:56:54;44.97;;;25.95;;
27794;SDS011;15176;50.844;4.412;2023-02-15T06:59:19;38.13;;;22.13;;
27794;SDS011;15176;50.844;4.412;2023-02-15T07:01:45;45.65;;;25.85;;
27794;SDS011;15176;50.844;4.412;2023-02-15T07:04:11;31.40;;;17.23;;
27794;SDS011;15176;50.844;4.412;2023-02-15T07:06:36;42.55;;;24.33;;
27794;SDS011;15176;50.844;4.412;2023-02-15T07:09:02;49.15;;;25.75;;
27794;SDS011;15176;50.844;4.412;2023-02-15T07:11:30;47.30;;;25.65;;
27794;SDS011;15176;50.844;4.412;2023-02-15T07:14:16;47.28;;;26.48;;
27794;SDS011;15176;50.844;4.412;2023-02-15T07:16:42;72.10;;;44.45;;
27794;SDS011;15176;50.844;4.412;2023-02-15T07:19:07;47.58;;;28.98;;
27794;SDS011;15176;50.844;4.412;2023-02-15T07:21:34;48.05;;;26.08;;
27794;SDS011;15176;50.844;4.412;2023-02-15T07:24:00;42.55;;;24.38;;
27794;SDS011;15176;50.844;4.412;2023-02-15T07:26:26;41.88;;;24.25;;
27794;SDS011;15176;50.844;4.412;2023-02-15T07:28:51;40.10;;;22.33;;
27794;SDS011;15176;50.844;4.412;2023-02-15T07:31:17;40.75;;;22.85;;
27794;SDS011;15176;50.844;4.412;2023-02-15T07:33:43;44.58;;;24.80;;
27794;SDS011;15176;50.844;4.412;2023-02-15T07:36:09;46.53;;;23.10;;
27794;SDS011;15176;50.844;4.412;2023-02-15T07:38:37;38.90;;;21.98;;
27794;SDS011;15176;50.844;4.412;2023-02-15T07:41:06;41.42;;;19.83;;
27794;SDS011;15176;50.844;4.412;2023-02-15T07:43:37;42.47;;;23.55;;
27794;SDS011;15176;50.844;4.412;2023-02-15T07:46:06;54.83;;;27.52;;
27794;SDS011;15176;50.844;4.412;2023-02-15T07:48:34;45.28;;;24.83;;
27794;SDS011;15176;50.844;4.412;2023-02-15T07:51:01;48.15;;;24.67;;
27794;SDS011;15176;50.844;4.412;2023-02-15T07:53:28;39.88;;;19.98;;
27794;SDS011;15176;50.844;4.412;2023-02-15T07:55:58;41.45;;;22.13;;
27794;SDS011;15176;50.844;4.412;2023-02-15T07:58:24;40.40;;;23.17;;
27794;SDS011;15176;50.844;4.412;2023-02-15T08:01:10;48.58;;;23.98;;
27794;SDS011;15176;50.844;4.412;2023-02-15T08:03:36;33.90;;;19.92;;
27794;SDS011;15176;50.844;4.412;2023-02-15T08:06:02;41.63;;;22.20;;
27794;SDS011;15176;50.844;4.412;2023-02-15T08:08:27;42.85;;;23.50;;
27794;SDS011;15176;50.844;4.412;2023-02-15T08:13:45;45.72;;;23.25;;
27794;SDS011;15176;50.844;4.412;2023-02-15T08:16:22;38.55;;;18.88;;
27794;SDS011;15176;50.844;4.412;2023-02-15T08:18:52;39.67;;;21.17;;
27794;SDS011;15176;50.844;4.412;2023-02-15T08:21:19;36.63;;;19.38;;
27794;SDS011;15176;50.844;4.412;2023-02-15T08:23:46;43.75;;;25.23;;
27794;SDS011;15176;50.844;4.412;2023-02-15T08:26:12;42.10;;;21.60;;
27794;SDS011;15176;50.844;4.412;2023-02-15T08:28:38;34.22;;;18.40;;
27794;SDS011;15176;50.844;4.412;2023-02-15T08:31:05;37.00;;;20.35;;
27794;SDS011;15176;50.844;4.412;2023-02-15T08:33:34;49.95;;;22.33;;
27794;SDS011;15176;50.844;4.412;2023-02-15T08:36:02;34.08;;;17.75;;
27794;SDS011;15176;50.844;4.412;2023-02-15T08:38:29;37.55;;;20.67;;
27794;SDS011;15176;50.844;4.412;2023-02-15T08:40:55;36.50;;;17.35;;
27794;SDS011;15176;50.844;4.412;2023-02-15T08:43:21;46.72;;;22.52;;
27794;SDS011;15176;50.844;4.412;2023-02-15T08:45:47;43.13;;;20.50;;
27794;SDS011;15176;50.844;4.412;2023-02-15T08:48:13;39.47;;;21.23;;
27794;SDS011;15176;50.844;4.412;2023-02-15T08:50:38;42.78;;;20.70;;
27794;SDS011;15176;50.844;4.412;2023-02-15T08:53:04;36.85;;;18.35;;
27794;SDS011;15176;50.844;4.412;2023-02-15T08:55:30;39.28;;;19.20;;
27794;SDS011;15176;50.844;4.412;2023-02-15T08:57:56;42.92;;;18.70;;
27794;SDS011;15176;50.844;4.412;2023-02-15T09:00:22;42.08;;;19.88;;
27794;SDS011;15176;50.844;4.412;2023-02-15T09:02:48;35.80;;;18.77;;
27794;SDS011;15176;50.844;4.412;2023-02-15T09:05:14;38.85;;;17.88;;
27794;SDS011;15176;50.844;4.412;2023-02-15T09:07:40;38.38;;;19.15;;
27794;SDS011;15176;50.844;4.412;2023-02-15T09:10:07;34.97;;;19.27;;
27794;SDS011;15176;50.844;4.412;2023-02-15T09:12:33;41.63;;;18.25;;
27794;SDS011;15176;50.844;4.412;2023-02-15T09:14:58;32.55;;;18.33;;
27794;SDS011;15176;50.844;4.412;2023-02-15T09:17:25;39.50;;;18.25;;
27794;SDS011;15176;50.844;4.412;2023-02-15T09:19:50;37.85;;;19.35;;
27794;SDS011;15176;50.844;4.412;2023-02-15T09:22:16;42.50;;;19.70;;
27794;SDS011;15176;50.844;4.412;2023-02-15T09:24:42;35.78;;;18.38;;
27794;SDS011;15176;50.844;4.412;2023-02-15T09:27:08;34.92;;;18.23;;
27794;SDS011;15176;50.844;4.412;2023-02-15T09:29:33;36.08;;;18.23;;
27794;SDS011;15176;50.844;4.412;2023-02-15T09:31:59;33.17;;;17.90;;
27794;SDS011;15176;50.844;4.412;2023-02-15T09:34:25;33.80;;;18.13;;
27794;SDS011;15176;50.844;4.412;2023-02-15T09:36:52;33.90;;;17.35;;
27794;SDS011;15176;50.844;4.412;2023-02-15T09:39:19;36.92;;;17.65;;
27794;SDS011;15176;50.844;4.412;2023-02-15T09:55:30;36.33;;;18.80;;
27794;SDS011;15176;50.844;4.412;2023-02-15T10:03:13;41.75;;;19.70;;
27794;SDS011;15176;50.844;4.412;2023-02-15T10:08:15;35.90;;;19.75;;
27794;SDS011;15176;50.844;4.412;2023-02-15T10:11:09;38.10;;;19.13;;
27794;SDS011;15176;50.844;4.412;2023-02-15T10:16:59;40.58;;;19.08;;
27794;SDS011;15176;50.844;4.412;2023-02-15T10:22:36;41.00;;;19.88;;
27794;SDS011;15176;50.844;4.412;2023-02-15T10:28:19;34.67;;;19.52;;
27794;SDS011;15176;50.844;4.412;2023-02-15T10:30:53;40.08;;;19.52;;
27794;SDS011;15176;50.844;4.412;2023-02-15T10:33:40;35.55;;;19.63;;
27794;SDS011;15176;50.844;4.412;2023-02-15T10:44:58;37.92;;;20.35;;
27794;SDS011;15176;50.844;4.412;2023-02-15T10:53:16;43.03;;;19.77;;
27794;SDS011;15176;50.844;4.412;2023-02-15T10:55:50;38.17;;;19.73;;
27794;SDS011;15176;50.844;4.412;2023-02-15T11:06:19;35.85;;;19.73;;
27794;SDS011;15176;50.844;4.412;2023-02-15T11:09:09;37.28;;;20.65;;
27794;SDS011;15176;50.844;4.412;2023-02-15T11:11:38;37.05;;;19.83;;
27794;SDS011;15176;50.844;4.412;2023-02-15T11:16:53;36.55;;;20.48;;
27794;SDS011;15176;50.844;4.412;2023-02-15T11:19:25;45.47;;;25.70;;
27794;SDS011;15176;50.844;4.412;2023-02-15T11:21:59;40.63;;;21.70;;
27794;SDS011;15176;50.844;4.412;2023-02-15T11:24:29;38.40;;;22.33;;
27794;SDS011;15176;50.844;4.412;2023-02-15T11:29:34;39.78;;;22.42;;
27794;SDS011;15176;50.844;4.412;2023-02-15T11:34:47;41.17;;;21.48;;
27794;SDS011;15176;50.844;4.412;2023-02-15T11:37:31;42.53;;;21.77;;
27794;SDS011;15176;50.844;4.412;2023-02-15T11:42:56;39.03;;;22.35;;
27794;SDS011;15176;50.844;4.412;2023-02-15T11:47:54;38.03;;;22.00;;
27794;SDS011;15176;50.844;4.412;2023-02-15T11:50:22;38.80;;;20.48;;
27794;SDS011;15176;50.844;4.412;2023-02-15T11:52:50;40.90;;;22.60;;
27794;SDS011;15176;50.844;4.412;2023-02-15T11:55:22;37.35;;;20.58;;
27794;SDS011;15176;50.844;4.412;2023-02-15T11:57:51;42.10;;;20.80;;
27794;SDS011;15176;50.844;4.412;2023-02-15T12:00:36;44.25;;;26.05;;
27794;SDS011;15176;50.844;4.412;2023-02-15T12:06:05;45.05;;;22.90;;
27794;SDS011;15176;50.844;4.412;2023-02-15T12:08:40;42.83;;;22.48;;
27794;SDS011;15176;50.844;4.412;2023-02-15T12:11:15;39.08;;;22.73;;
27794;SDS011;15176;50.844;4.412;2023-02-15T12:16:29;39.55;;;23.08;;
27794;SDS011;15176;50.844;4.412;2023-02-15T12:19:13;48.15;;;25.35;;
27794;SDS011;15176;50.844;4.412;2023-02-15T12:21:52;45.47;;;23.70;;
27794;SDS011;15176;50.844;4.412;2023-02-15T12:24:23;41.33;;;24.17;;
27794;SDS011;15176;50.844;4.412;2023-02-15T12:26:56;42.08;;;24.05;;
27794;SDS011;15176;50.844;4.412;2023-02-15T12:29:22;44.08;;;24.55;;
27794;SDS011;15176;50.844;4.412;2023-02-15T12:31:51;41.47;;;23.85;;
27794;SDS011;15176;50.844;4.412;2023-02-15T12:34:22;44.88;;;24.98;;
27794;SDS011;15176;50.844;4.412;2023-02-15T12:36:52;49.10;;;24.75;;
27794;SDS011;15176;50.844;4.412;2023-02-15T12:39:26;45.08;;;23.27;;
27794;SDS011;15176;50.844;4.412;2023-02-15T12:44:23;45.17;;;25.05;;
27794;SDS011;15176;50.844;4.412;2023-02-15T12:49:29;41.90;;;24.45;;
27794;SDS011;15176;50.844;4.412;2023-02-15T12:51:58;40.90;;;23.77;;
27794;SDS011;15176;50.844;4.412;2023-02-15T12:57:43;40.08;;;21.92;;
27794;SDS011;15176;50.844;4.412;2023-02-15T13:00:25;39.38;;;22.98;;
27794;SDS011;15176;50.844;4.412;2023-02-15T13:08:02;44.13;;;25.02;;
27794;SDS011;15176;50.844;4.412;2023-02-15T13:10:37;45.38;;;25.58;;
27794;SDS011;15176;50.844;4.412;2023-02-15T13:13:17;42.85;;;24.45;;
27794;SDS011;15176;50.844;4.412;2023-02-15T13:15:48;43.45;;;23.95;;
27794;SDS011;15176;50.844;4.412;2023-02-15T13:18:19;38.15;;;21.83;;
27794;SDS011;15176;50.844;4.412;2023-02-15T13:21:43;42.55;;;23.88;;
27794;SDS011;15176;50.844;4.412;2023-02-15T13:23:58;41.17;;;22.98;;
27794;SDS011;15176;50.844;4.412;2023-02-15T13:26:30;37.00;;;21.35;;
27794;SDS011;15176;50.844;4.412;2023-02-15T13:29:10;44.40;;;23.77;;
27794;SDS011;15176;50.844;4.412;2023-02-15T13:31:42;42.45;;;25.02;;
27794;SDS011;15176;50.844;4.412;2023-02-15T13:34:14;39.28;;;23.67;;
27794;SDS011;15176;50.844;4.412;2023-02-15T13:36:56;41.20;;;24.70;;
27794;SDS011;15176;50.844;4.412;2023-02-15T13:42:06;42.42;;;24.65;;
27794;SDS011;15176;50.844;4.412;2023-02-15T13:50:34;42.50;;;23.95;;
27794;SDS011;15176;50.844;4.412;2023-02-15T13:56:05;38.40;;;23.67;;
27794;SDS011;15176;50.844;4.412;2023-02-15T14:04:09;42.95;;;25.92;;
27794;SDS011;15176;50.844;4.412;2023-02-15T14:25:39;47.03;;;26.33;;
27794;SDS011;15176;50.844;4.412;2023-02-15T14:28:21;46.72;;;28.13;;
27794;SDS011;15176;50.844;4.412;2023-02-15T14:30:51;47.65;;;28.92;;
27794;SDS011;15176;50.844;4.412;2023-02-15T14:35:55;53.33;;;28.98;;
27794;SDS011;15176;50.844;4.412;2023-02-15T14:46:19;54.45;;;30.38;;
27794;SDS011;15176;50.844;4.412;2023-02-15T14:48:52;52.03;;;29.23;;
27794;SDS011;15176;50.844;4.412;2023-02-15T14:54:52;51.63;;;30.27;;
27794;SDS011;15176;50.844;4.412;2023-02-15T15:07:57;50.22;;;29.75;;
27794;SDS011;15176;50.844;4.412;2023-02-15T15:15:50;53.47;;;30.08;;
27794;SDS011;15176;50.844;4.412;2023-02-15T15:21:07;57.72;;;31.63;;
27794;SDS011;15176;50.844;4.412;2023-02-15T15:23:38;59.22;;;31.38;;
27794;SDS011;15176;50.844;4.412;2023-02-15T15:39:40;56.20;;;31.17;;
27794;SDS011;15176;50.844;4.412;2023-02-15T15:42:28;58.28;;;32.13;;
27794;SDS011;15176;50.844;4.412;2023-02-15T15:50:24;62.65;;;33.78;;
27794;SDS011;15176;50.844;4.412;2023-02-15T15:52:51;57.63;;;34.03;;
27794;SDS011;15176;50.844;4.412;2023-02-15T15:55:21;59.35;;;32.97;;
27794;SDS011;15176;50.844;4.412;2023-02-15T15:57:50;54.83;;;29.70;;
27794;SDS011;15176;50.844;4.412;2023-02-15T16:00:30;60.05;;;32.45;;
27794;SDS011;15176;50.844;4.412;2023-02-15T16:03:04;61.55;;;32.70;;
27794;SDS011;15176;50.844;4.412;2023-02-15T16:05:37;61.22;;;32.58;;
27794;SDS011;15176;50.844;4.412;2023-02-15T16:08:04;44.75;;;25.98;;
27794;SDS011;15176;50.844;4.412;2023-02-15T16:10:30;58.55;;;30.85;;
27794;SDS011;15176;50.844;4.412;2023-02-15T16:13:01;57.78;;;32.75;;
27794;SDS011;15176;50.844;4.412;2023-02-15T16:15:35;56.92;;;32.80;;
27794;SDS011;15176;50.844;4.412;2023-02-15T16:18:10;60.53;;;31.67;;
27794;SDS011;15176;50.844;4.412;2023-02-15T16:20:42;58.90;;;30.92;;
27794;SDS011;15176;50.844;4.412;2023-02-15T16:28:39;56.60;;;32.42;;
27794;SDS011;15176;50.844;4.412;2023-02-15T16:31:13;54.53;;;28.10;;
27794;SDS011;15176;50.844;4.412;2023-02-15T16:33:41;60.08;;;32.30;;
27794;SDS011;15176;50.844;4.412;2023-02-15T16:36:10;55.15;;;30.67;;
27794;SDS011;15176;50.844;4.412;2023-02-15T16:39:00;53.80;;;30.83;;
27794;SDS011;15176;50.844;4.412;2023-02-15T16:41:32;52.22;;;29.30;;
27794;SDS011;15176;50.844;4.412;2023-02-15T16:44:16;52.22;;;28.30;;
27794;SDS011;15176;50.844;4.412;2023-02-15T16:46:54;54.05;;;31.08;;
27794;SDS011;15176;50.844;4.412;2023-02-15T16:49:22;59.35;;;31.55;;
27794;SDS011;15176;50.844;4.412;2023-02-15T16:51:56;63.45;;;32.38;;
27794;SDS011;15176;50.844;4.412;2023-02-15T16:54:27;58.00;;;31.08;;
27794;SDS011;15176;50.844;4.412;2023-02-15T16:56:56;56.75;;;31.25;;
27794;SDS011;15176;50.844;4.412;2023-02-15T17:02:05;53.20;;;29.00;;
27794;SDS011;15176;50.844;4.412;2023-02-15T17:04:39;55.97;;;30.98;;
27794;SDS011;15176;50.844;4.412;2023-02-15T17:07:06;58.45;;;32.65;;
27794;SDS011;15176;50.844;4.412;2023-02-15T17:17:51;53.17;;;30.83;;
27794;SDS011;15176;50.844;4.412;2023-02-15T17:20:17;59.88;;;31.38;;
27794;SDS011;15176;50.844;4.412;2023-02-15T17:22:45;34.22;;;18.52;;
27794;SDS011;15176;50.844;4.412;2023-02-15T17:25:18;56.25;;;30.73;;
27794;SDS011;15176;50.844;4.412;2023-02-15T17:27:53;48.85;;;29.10;;
27794;SDS011;15176;50.844;4.412;2023-02-15T17:30:23;54.42;;;28.20;;
27794;SDS011;15176;50.844;4.412;2023-02-15T17:32:56;57.65;;;31.55;;
27794;SDS011;15176;50.844;4.412;2023-02-15T17:40:39;39.83;;;24.23;;
27794;SDS011;15176;50.844;4.412;2023-02-15T17:43:05;50.92;;;29.73;;
27794;SDS011;15176;50.844;4.412;2023-02-15T17:45:35;61.60;;;32.58;;
27794;SDS011;15176;50.844;4.412;2023-02-15T17:48:04;60.38;;;33.97;;
27794;SDS011;15176;50.844;4.412;2023-02-15T17:50:31;55.75;;;31.58;;
27794;SDS011;15176;50.844;4.412;2023-02-15T17:52:58;52.00;;;30.60;;
27794;SDS011;15176;50.844;4.412;2023-02-15T17:55:26;50.10;;;25.05;;
27794;SDS011;15176;50.844;4.412;2023-02-15T17:58:03;61.63;;;33.38;;
27794;SDS011;15176;50.844;4.412;2023-02-15T18:00:35;42.65;;;21.67;;
27794;SDS011;15176;50.844;4.412;2023-02-15T18:03:17;35.58;;;20.38;;
27794;SDS011;15176;50.844;4.412;2023-02-15T18:05:54;45.92;;;25.90;;
27794;SDS011;15176;50.844;4.412;2023-02-15T18:08:31;55.75;;;29.45;;
27794;SDS011;15176;50.844;4.412;2023-02-15T18:11:08;46.88;;;27.45;;
27794;SDS011;15176;50.844;4.412;2023-02-15T18:13:46;42.13;;;23.42;;
27794;SDS011;15176;50.844;4.412;2023-02-15T18:16:12;50.35;;;28.83;;
27794;SDS011;15176;50.844;4.412;2023-02-15T18:18:43;45.88;;;27.08;;
27794;SDS011;15176;50.844;4.412;2023-02-15T18:21:10;49.80;;;27.10;;
27794;SDS011;15176;50.844;4.412;2023-02-15T18:23:36;49.58;;;29.70;;
27794;SDS011;15176;50.844;4.412;2023-02-15T18:26:03;49.78;;;29.60;;
27794;SDS011;15176;50.844;4.412;2023-02-15T18:28:28;48.78;;;28.77;;
27794;SDS011;15176;50.844;4.412;2023-02-15T18:30:54;51.28;;;29.73;;
27794;SDS011;15176;50.844;4.412;2023-02-15T18:33:24;48.17;;;29.05;;